createdAt,value
2018-12-08T00:00:56.050Z,7.30
2018-12-08T00:04:58.809Z,7.30
2018-12-08T00:09:01.616Z,7.30
2018-12-08T00:13:04.331Z,7.30
2018-12-08T00:17:07.127Z,7.20
2018-12-08T00:21:09.923Z,7.20
2018-12-08T00:25:12.734Z,7.20
2018-12-08T00:29:15.430Z,7.20
2018-12-08T00:33:18.210Z,7.10
2018-12-08T00:37:20.990Z,7.10
2018-12-08T00:41:23.719Z,7.10
2018-12-08T00:45:26.556Z,7.10
2018-12-08T00:49:29.330Z,7.10
2018-12-08T00:53:32.074Z,7.10
2018-12-08T00:57:34.807Z,7.00
2018-12-08T01:01:37.576Z,7.00
2018-12-08T01:05:40.331Z,6.90
2018-12-08T01:09:43.420Z,6.90
2018-12-08T01:13:46.155Z,6.90
2018-12-08T01:17:49.100Z,6.80
2018-12-08T01:21:51.866Z,6.80
2018-12-08T01:25:54.660Z,6.70
2018-12-08T01:29:57.338Z,6.70
2018-12-08T01:34:00.111Z,6.70
2018-12-08T01:38:02.786Z,6.70
2018-12-08T01:42:05.514Z,6.60
2018-12-08T01:46:08.403Z,6.60
2018-12-08T01:50:11.210Z,6.60
2018-12-08T01:54:13.916Z,6.70
2018-12-08T01:58:16.640Z,6.70
2018-12-08T02:02:19.420Z,6.70
2018-12-08T02:06:22.170Z,6.80
2018-12-08T02:10:25.007Z,6.80
2018-12-08T02:14:27.749Z,6.80
2018-12-08T02:18:30.428Z,6.80
2018-12-08T02:22:33.128Z,6.90
2018-12-08T02:26:35.871Z,6.90
2018-12-08T02:30:38.627Z,6.90
2018-12-08T02:34:41.353Z,6.90
2018-12-08T02:38:44.069Z,6.90
2018-12-08T02:42:46.853Z,6.90
2018-12-08T02:46:49.639Z,7.00
2018-12-08T02:50:52.384Z,6.90
2018-12-08T02:54:55.135Z,7.00
2018-12-08T02:58:57.863Z,7.00
2018-12-08T03:03:00.660Z,7.00
2018-12-08T03:07:03.379Z,7.00
2018-12-08T03:11:06.146Z,7.00
2018-12-08T03:15:09.009Z,7.00
2018-12-08T03:19:11.757Z,7.00
2018-12-08T03:23:14.488Z,7.00
2018-12-08T03:27:17.333Z,6.90
2018-12-08T03:31:20.056Z,6.90
2018-12-08T03:35:22.740Z,6.90
2018-12-08T03:39:25.479Z,6.90
2018-12-08T03:43:28.239Z,6.90
2018-12-08T03:47:31.038Z,6.80
2018-12-08T03:51:33.790Z,6.80
2018-12-08T03:55:36.496Z,6.80
2018-12-08T03:59:39.275Z,6.80
2018-12-08T04:03:42.049Z,6.80
2018-12-08T04:07:44.788Z,6.80
2018-12-08T04:11:47.511Z,6.80
2018-12-08T04:15:50.245Z,6.80
2018-12-08T04:19:53.014Z,6.80
2018-12-08T04:23:55.766Z,6.80
2018-12-08T04:27:58.514Z,6.90
2018-12-08T04:32:01.288Z,6.90
2018-12-08T04:36:03.994Z,6.90
2018-12-08T04:40:06.858Z,6.90
2018-12-08T04:44:09.577Z,6.90
2018-12-08T04:48:12.376Z,6.90
2018-12-08T04:52:15.129Z,6.90
2018-12-08T04:56:17.846Z,7.00
2018-12-08T05:00:20.584Z,7.00
2018-12-08T05:04:23.358Z,7.00
2018-12-08T05:08:26.199Z,7.00
2018-12-08T05:12:28.907Z,7.10
2018-12-08T05:16:31.609Z,7.10
2018-12-08T05:20:34.337Z,7.10
2018-12-08T05:24:37.113Z,7.10
2018-12-08T05:28:39.875Z,7.10
2018-12-08T05:32:42.611Z,7.20
2018-12-08T05:36:45.340Z,7.20
2018-12-08T05:40:48.097Z,7.20
2018-12-08T05:44:50.883Z,7.20
2018-12-08T05:48:53.791Z,7.30
2018-12-08T05:52:56.481Z,7.30
2018-12-08T05:56:59.188Z,7.30
2018-12-08T06:01:01.865Z,7.30
2018-12-08T06:05:05.085Z,7.40
2018-12-08T06:09:07.822Z,7.40
2018-12-08T06:13:10.580Z,7.40
2018-12-08T06:17:13.425Z,7.40
2018-12-08T06:21:16.173Z,7.40
2018-12-08T06:25:22.521Z,7.40
2018-12-08T06:29:25.726Z,7.50
2018-12-08T06:33:28.511Z,7.50
2018-12-08T06:37:31.247Z,7.50
2018-12-08T06:41:33.990Z,7.50
2018-12-08T06:45:36.696Z,7.50
2018-12-08T06:49:39.402Z,7.50
2018-12-08T06:53:42.097Z,7.50
2018-12-08T06:57:44.811Z,7.50
2018-12-08T07:01:47.551Z,7.50
2018-12-08T07:05:50.323Z,7.50
2018-12-08T07:09:53.061Z,7.50
2018-12-08T07:13:55.791Z,7.50
2018-12-08T07:17:58.581Z,7.50
2018-12-08T07:22:01.597Z,7.50
2018-12-08T07:26:04.381Z,7.60
2018-12-08T07:30:08.354Z,7.60
2018-12-08T07:34:11.207Z,7.60
2018-12-08T07:38:14.009Z,7.60
2018-12-08T07:42:16.865Z,7.70
2018-12-08T07:46:19.701Z,7.70
2018-12-08T07:50:22.687Z,7.80
2018-12-08T07:54:25.613Z,7.80
2018-12-08T07:58:28.343Z,7.80
2018-12-08T08:02:31.721Z,7.80
2018-12-08T08:06:34.573Z,7.90
2018-12-08T08:10:37.393Z,7.90
2018-12-08T08:14:40.668Z,7.90
2018-12-08T08:18:43.387Z,7.90
2018-12-08T08:22:46.833Z,7.90
2018-12-08T08:26:49.587Z,8.00
2018-12-08T08:30:52.367Z,8.00
2018-12-08T08:34:55.117Z,7.90
2018-12-08T08:38:58.040Z,8.00
2018-12-08T08:43:00.831Z,8.00
2018-12-08T08:47:03.725Z,8.00
2018-12-08T08:51:06.593Z,8.00
2018-12-08T08:55:09.409Z,8.00
2018-12-08T08:59:12.235Z,8.00
2018-12-08T09:03:15.043Z,8.00
2018-12-08T09:07:17.848Z,8.00
2018-12-08T09:11:20.735Z,8.00
2018-12-08T09:15:23.533Z,8.00
2018-12-08T09:19:26.293Z,8.00
2018-12-08T09:23:29.094Z,8.00
2018-12-08T09:27:32.142Z,8.00
2018-12-08T09:31:34.945Z,8.00
2018-12-08T09:35:37.755Z,8.00
2018-12-08T09:39:40.528Z,8.10
2018-12-08T09:43:43.297Z,8.10
2018-12-08T09:47:46.101Z,8.10
2018-12-08T09:51:49.025Z,8.10
2018-12-08T09:55:51.814Z,8.10
2018-12-08T09:59:54.574Z,8.20
2018-12-08T10:03:57.391Z,8.20
2018-12-08T10:08:00.176Z,8.20
2018-12-08T10:12:02.971Z,8.20
2018-12-08T10:16:05.860Z,8.10
2018-12-08T10:20:08.887Z,8.10
2018-12-08T10:24:11.689Z,8.10
2018-12-08T10:28:14.610Z,8.10
2018-12-08T10:32:17.398Z,8.10
2018-12-08T10:36:20.179Z,8.10
2018-12-08T10:40:23.095Z,8.10
2018-12-08T10:44:26.045Z,8.10
2018-12-08T10:48:28.787Z,8.10
2018-12-08T10:52:31.573Z,8.00
2018-12-08T10:56:34.283Z,8.00
2018-12-08T11:00:42.429Z,8.00
2018-12-08T11:04:45.624Z,8.00
2018-12-08T11:08:48.600Z,8.00
2018-12-08T11:12:51.630Z,8.00
2018-12-08T11:16:54.372Z,7.90
2018-12-08T11:20:57.293Z,7.90
2018-12-08T11:25:00.014Z,7.90
2018-12-08T11:29:02.838Z,7.90
2018-12-08T11:33:05.635Z,7.90
2018-12-08T11:37:08.334Z,7.90
2018-12-08T11:41:10.959Z,7.90
2018-12-08T11:45:13.801Z,7.90
2018-12-08T11:49:16.549Z,7.90
2018-12-08T11:53:19.282Z,8.00
2018-12-08T11:57:21.889Z,8.00
2018-12-08T12:01:24.599Z,8.00
2018-12-08T12:05:27.217Z,8.00
2018-12-08T12:09:29.838Z,8.00
2018-12-08T12:13:32.466Z,8.10
2018-12-08T12:17:35.077Z,8.10
2018-12-08T12:21:37.813Z,8.10
2018-12-08T12:25:40.625Z,8.20
2018-12-08T12:29:43.265Z,8.20
2018-12-08T12:33:45.872Z,8.30
2018-12-08T12:37:48.491Z,8.30
2018-12-08T12:41:51.342Z,8.30
2018-12-08T12:45:54.282Z,8.40
2018-12-08T12:49:57.122Z,8.40
2018-12-08T12:53:59.746Z,8.50
2018-12-08T12:58:02.349Z,8.50
2018-12-08T13:02:05.199Z,8.60
2018-12-08T13:06:08.003Z,8.60
2018-12-08T13:10:17.207Z,8.70
2018-12-08T13:14:19.831Z,8.70
2018-12-08T13:18:22.441Z,8.70
2018-12-08T13:22:25.046Z,8.80
2018-12-08T13:26:27.714Z,8.80
2018-12-08T13:30:30.372Z,8.80
2018-12-08T13:34:32.990Z,8.80
2018-12-08T13:38:35.655Z,8.80
2018-12-08T13:42:38.286Z,8.80
2018-12-08T13:46:40.967Z,8.80
2018-12-08T13:50:43.799Z,8.80
2018-12-08T13:54:48.073Z,8.90
2018-12-08T13:58:50.690Z,8.90
2018-12-08T14:02:53.310Z,8.90
2018-12-08T14:06:55.932Z,8.90
2018-12-08T14:10:58.553Z,8.90
2018-12-08T14:15:01.264Z,8.90
2018-12-08T14:19:03.899Z,8.90
2018-12-08T14:23:06.517Z,8.90
2018-12-08T14:27:09.150Z,8.90
2018-12-08T14:31:11.768Z,8.90
2018-12-08T14:35:14.381Z,8.90
2018-12-08T14:39:16.994Z,8.90
2018-12-08T14:43:19.616Z,8.90
2018-12-08T14:47:22.321Z,8.90
2018-12-08T14:51:24.949Z,8.90
2018-12-08T14:55:27.554Z,8.90
2018-12-08T14:59:30.178Z,8.90
2018-12-08T15:03:32.790Z,8.90
2018-12-08T15:07:35.424Z,8.90
2018-12-08T15:11:38.042Z,8.80
2018-12-08T15:15:40.649Z,8.80
2018-12-08T15:19:43.310Z,8.80
2018-12-08T15:23:45.932Z,8.80
2018-12-08T15:27:48.583Z,8.80
2018-12-08T15:31:51.194Z,8.70
2018-12-08T15:35:53.789Z,8.70
2018-12-08T15:39:56.410Z,8.70
2018-12-08T15:43:59.050Z,8.60
2018-12-08T15:48:01.806Z,8.70
2018-12-08T15:52:04.490Z,8.60
2018-12-08T15:56:07.994Z,8.60
2018-12-08T16:00:11.564Z,8.70
2018-12-08T16:04:14.291Z,8.70
2018-12-08T16:08:17.108Z,8.60
2018-12-08T16:12:19.804Z,8.60
2018-12-08T16:16:22.417Z,8.60
2018-12-08T16:20:25.408Z,8.60
2018-12-08T16:24:28.050Z,8.60
2018-12-08T16:28:30.948Z,8.50
2018-12-08T16:32:33.832Z,8.60
2018-12-08T16:36:36.452Z,8.60
2018-12-08T16:40:39.089Z,8.60
2018-12-08T16:44:42.238Z,8.60
2018-12-08T16:48:44.854Z,8.60
2018-12-08T16:52:47.485Z,8.70
2018-12-08T16:56:50.106Z,8.60
2018-12-08T17:00:52.738Z,8.70
2018-12-08T17:04:55.356Z,8.70
2018-12-08T17:08:57.985Z,8.70
2018-12-08T17:13:00.604Z,8.70
2018-12-08T17:17:03.289Z,8.70
2018-12-08T17:21:06.049Z,8.70
2018-12-08T17:25:08.887Z,8.70
2018-12-08T17:29:11.549Z,8.60
2018-12-08T17:33:14.242Z,8.60
2018-12-08T17:37:16.980Z,8.60
2018-12-08T17:41:19.646Z,8.60
2018-12-08T17:45:22.277Z,8.50
2018-12-08T17:49:25.120Z,8.50
2018-12-08T17:53:27.825Z,8.50
2018-12-08T17:57:30.481Z,8.50
2018-12-08T18:01:33.462Z,8.50
2018-12-08T18:05:36.225Z,8.50
2018-12-08T18:09:38.942Z,8.50
2018-12-08T18:13:41.549Z,8.50
2018-12-08T18:17:44.261Z,8.50
2018-12-08T18:21:46.995Z,8.50
2018-12-08T18:25:49.625Z,8.50
2018-12-08T18:29:52.244Z,8.50
2018-12-08T18:33:54.873Z,8.50
2018-12-08T18:37:57.498Z,8.50
2018-12-08T18:42:00.910Z,8.50
2018-12-08T18:46:03.777Z,8.50
2018-12-08T18:50:07.664Z,8.50
2018-12-08T18:54:10.412Z,8.50
2018-12-08T18:58:13.039Z,8.50
2018-12-08T19:02:15.728Z,8.50
2018-12-08T19:06:18.359Z,8.50
2018-12-08T19:10:20.965Z,8.50
2018-12-08T19:14:23.629Z,8.50
2018-12-08T19:18:26.349Z,8.50
2018-12-08T19:22:29.145Z,8.60
2018-12-08T19:26:31.796Z,8.60
2018-12-08T19:30:34.453Z,8.60
2018-12-08T19:34:37.073Z,8.60
2018-12-08T19:38:40.737Z,8.70
2018-12-08T19:42:45.100Z,8.70
2018-12-08T19:46:49.147Z,8.70
2018-12-08T19:50:52.898Z,8.80
2018-12-08T19:54:56.867Z,8.80
2018-12-08T19:59:00.739Z,8.90
2018-12-08T20:03:04.912Z,8.90
2018-12-08T20:07:09.105Z,8.90
2018-12-08T20:11:13.558Z,8.90
2018-12-08T20:15:17.402Z,8.90
2018-12-08T20:19:21.799Z,8.90
2018-12-08T20:23:25.833Z,8.90
2018-12-08T20:27:29.587Z,8.90
2018-12-08T20:31:32.278Z,8.90
2018-12-08T20:35:36.570Z,8.90
2018-12-08T20:39:40.479Z,8.90
2018-12-08T20:43:43.779Z,8.90
2018-12-08T20:47:46.381Z,8.90
2018-12-08T20:51:49.547Z,8.90
2018-12-08T20:55:53.455Z,8.90
2018-12-08T20:59:57.906Z,8.90
2018-12-08T21:04:00.866Z,8.90
2018-12-08T21:08:05.449Z,8.90
2018-12-08T21:12:10.281Z,9.00
2018-12-08T21:16:14.017Z,9.00
2018-12-08T21:20:17.986Z,9.00
2018-12-08T21:24:21.761Z,9.00
2018-12-08T21:28:24.456Z,9.00
2018-12-08T21:32:27.103Z,9.10
2018-12-08T21:36:29.790Z,9.10
2018-12-08T21:40:33.834Z,9.10
2018-12-08T21:44:38.426Z,9.10
2018-12-08T21:48:42.743Z,9.10
2018-12-08T21:52:47.234Z,9.10
2018-12-08T21:56:51.759Z,9.10
2018-12-08T22:00:55.679Z,9.20
2018-12-08T22:04:59.816Z,9.20
2018-12-08T22:09:04.433Z,9.20
2018-12-08T22:13:08.862Z,9.30
2018-12-08T22:17:14.507Z,9.30
2018-12-08T22:21:18.343Z,9.30
2018-12-08T22:25:22.659Z,9.30
2018-12-08T22:29:26.776Z,9.30
2018-12-08T22:33:30.699Z,9.30
2018-12-08T22:37:35.205Z,9.40
2018-12-08T22:41:39.194Z,9.40
2018-12-08T22:45:43.742Z,9.40
2018-12-08T22:49:47.420Z,9.40
2018-12-08T22:53:51.620Z,9.50
2018-12-08T22:57:54.440Z,9.50
2018-12-08T23:01:58.293Z,9.50
2018-12-08T23:06:02.338Z,9.50
2018-12-08T23:10:06.409Z,9.50
2018-12-08T23:14:10.552Z,9.50
2018-12-08T23:18:14.866Z,9.50
2018-12-08T23:22:18.197Z,9.50
2018-12-08T23:26:20.465Z,9.50
2018-12-08T23:30:23.125Z,9.50
2018-12-08T23:34:25.708Z,9.50
2018-12-08T23:38:29.198Z,9.50
2018-12-08T23:42:31.822Z,9.50
2018-12-08T23:46:34.442Z,9.50
2018-12-08T23:50:37.183Z,9.50
2018-12-08T23:54:42.333Z,9.50
2018-12-08T23:58:45.143Z,9.50
